Time;durP1;ratioP1;P1;durP2;ratioP2;P2;SDS_P1;SDS_P2;PMS_P1;PMS_P2;Temp;Humidity;BMP_temperature;BMP_pressure;BME280_temperature;BME280_humidity;BME280_pressure;Samples;Min_cycle;Max_cycle;Signal;HPM_P1;HPM_P2
2022/09/16 00:00:23;;;;;;;2.67;0.95;;;11.40;99.90;;;;;;5137916;27;20277;-76
2022/09/16 00:02:51;;;;;;;3.50;1.10;;;11.40;99.90;;;;;;5137825;27;20119;-77
2022/09/16 00:05:17;;;;;;;2.63;0.80;;;11.60;99.90;;;;;;5138277;27;20042;-78
2022/09/16 00:07:43;;;;;;;3.08;1.08;;;11.50;99.90;;;;;;5137809;27;20422;-77
2022/09/16 00:10:09;;;;;;;3.35;1.05;;;11.50;99.90;;;;;;5137675;27;20122;-77
2022/09/16 00:12:34;;;;;;;4.80;1.00;;;11.80;99.90;;;;;;5119349;27;20039;-77
2022/09/16 00:15:00;;;;;;;6.43;1.15;;;11.80;99.90;;;;;;5137628;27;20043;-77
2022/09/16 00:17:26;;;;;;;2.88;1.00;;;11.60;99.90;;;;;;5137570;27;20039;-76
2022/09/16 00:19:51;;;;;;;4.63;1.13;;;11.60;99.90;;;;;;5138481;27;20039;-77
2022/09/16 00:22:17;;;;;;;5.05;1.17;;;11.60;99.90;;;;;;5137925;27;20088;-76
2022/09/16 00:24:43;;;;;;;2.50;0.97;;;11.60;99.90;;;;;;5137391;27;20410;-76
2022/09/16 00:27:09;;;;;;;3.13;1.15;;;11.60;99.90;;;;;;5137391;27;20042;-76
2022/09/16 00:29:35;;;;;;;4.60;1.07;;;11.70;99.90;;;;;;5137318;27;20104;-76
2022/09/16 00:32:01;;;;;;;5.55;1.08;;;11.60;99.90;;;;;;5137201;27;20417;-76
2022/09/16 00:34:26;;;;;;;3.57;1.00;;;11.60;99.90;;;;;;5137140;27;20039;-78
2022/09/16 00:36:52;;;;;;;6.15;1.05;;;11.70;99.90;;;;;;5137165;27;20345;-76
2022/09/16 00:39:17;;;;;;;3.75;1.13;;;11.70;99.90;;;;;;5137141;27;20085;-76
2022/09/16 00:41:43;;;;;;;5.60;1.10;;;11.60;99.90;;;;;;5136907;27;20051;-76
2022/09/16 00:44:46;;;;;;;2.50;0.70;;;11.70;99.90;;;;;;5119140;27;20514;-76
2022/09/16 00:47:19;;;;;;;4.53;1.23;;;11.70;99.90;;;;;;5136920;27;20039;-76
2022/09/16 00:49:45;;;;;;;2.67;1.05;;;11.70;99.90;;;;;;5137070;27;20130;-76
2022/09/16 00:52:12;;;;;;;4.70;1.00;;;11.70;99.90;;;;;;5136803;27;20043;-76
2022/09/16 00:54:39;;;;;;;1.77;1.00;;;11.70;99.90;;;;;;5118420;27;20099;-76
2022/09/16 00:57:09;;;;;;;3.35;1.15;;;11.80;99.90;;;;;;5136408;27;20500;-76
2022/09/16 00:59:37;;;;;;;3.55;1.00;;;11.70;99.90;;;;;;5136893;27;20047;-76
2022/09/16 01:02:10;;;;;;;5.85;1.15;;;11.70;99.90;;;;;;5136625;27;20600;-76
2022/09/16 01:04:44;;;;;;;4.60;1.23;;;11.80;99.90;;;;;;5136603;27;20057;-76
2022/09/16 01:07:10;;;;;;;1.50;0.90;;;11.80;99.90;;;;;;5118492;27;20451;-77
2022/09/16 01:09:36;;;;;;;3.30;0.90;;;11.80;99.90;;;;;;5136569;27;20122;-76
2022/09/16 01:12:02;;;;;;;3.55;1.08;;;11.80;99.90;;;;;;5136276;27;20046;-78
2022/09/16 01:17:17;;;;;;;4.45;1.15;;;11.80;99.90;;;;;;5120915;27;20082;-77
2022/09/16 01:20:20;;;;;;;2.50;0.82;;;11.80;99.90;;;;;;5136398;27;20039;-77
2022/09/16 01:22:51;;;;;;;6.18;1.13;;;11.80;99.90;;;;;;5136254;27;20039;-77
2022/09/16 01:25:49;;;;;;;7.85;1.20;;;11.70;99.90;;;;;;5136164;27;20043;-77
2022/09/16 01:28:34;;;;;;;3.33;0.90;;;11.70;99.90;;;;;;5136113;27;20043;-77
2022/09/16 01:31:38;;;;;;;3.70;1.00;;;11.80;99.90;;;;;;5136080;27;20043;-77
2022/09/16 01:34:27;;;;;;;1.75;0.80;;;11.80;99.90;;;;;;5079286;27;20047;-76
2022/09/16 01:37:11;;;;;;;2.25;0.93;;;11.80;99.90;;;;;;5136002;27;20122;-77
2022/09/16 01:39:57;;;;;;;2.53;0.90;;;11.80;99.90;;;;;;5136252;27;20436;-77
2022/09/16 01:42:56;;;;;;;2.97;0.90;;;11.80;99.90;;;;;;5136272;27;20101;-76
2022/09/16 01:45:54;;;;;;;3.35;0.93;;;11.70;99.90;;;;;;5135871;27;20054;-77
2022/09/16 01:48:43;;;;;;;7.23;0.90;;;11.70;99.90;;;;;;5135828;27;20403;-76
2022/09/16 01:51:19;;;;;;;4.07;0.80;;;11.60;99.90;;;;;;5117731;27;20055;-77
2022/09/16 01:53:52;;;;;;;5.60;1.08;;;11.60;99.90;;;;;;5135341;27;20049;-77
2022/09/16 01:56:34;;;;;;;4.25;1.00;;;11.60;99.90;;;;;;5135602;27;20051;-77
2022/09/16 01:59:21;;;;;;;3.25;0.90;;;11.60;99.90;;;;;;5135570;27;20043;-77
2022/09/16 02:02:02;;;;;;;2.37;0.70;;;11.60;99.90;;;;;;5117408;27;20382;-77
2022/09/16 02:04:34;;;;;;;5.15;1.20;;;11.60;99.90;;;;;;5135750;27;20074;-77
2022/09/16 02:07:03;;;;;;;3.13;0.88;;;11.60;99.90;;;;;;5134608;27;20478;-77
2022/09/16 02:09:34;;;;;;;4.18;0.95;;;11.60;99.90;;;;;;5135368;27;20066;-77
2022/09/16 02:12:05;;;;;;;3.05;0.90;;;11.60;99.90;;;;;;5135297;27;20497;-77
2022/09/16 02:14:37;;;;;;;3.13;0.90;;;11.60;99.90;;;;;;5135248;27;20070;-77
2022/09/16 02:17:19;;;;;;;2.42;1.02;;;11.60;99.90;;;;;;5135786;27;20043;-77
2022/09/16 02:19:50;;;;;;;7.32;1.10;;;11.60;99.90;;;;;;5135161;27;20054;-77
2022/09/16 02:22:23;;;;;;;2.25;0.90;;;12.00;99.90;;;;;;5135221;27;20043;-77
2022/09/16 02:24:50;;;;;;;2.75;0.95;;;11.60;99.90;;;;;;5135242;27;20057;-76
2022/09/16 02:27:20;;;;;;;6.95;1.40;;;11.60;99.90;;;;;;5135002;27;20444;-77
2022/09/16 02:29:53;;;;;;;5.43;1.00;;;11.60;99.90;;;;;;5134766;27;20550;-77
2022/09/16 02:32:21;;;;;;;6.53;1.00;;;11.60;99.90;;;;;;5134934;27;20043;-77
2022/09/16 02:34:50;;;;;;;2.78;1.02;;;11.60;99.90;;;;;;5134939;27;20050;-76
2022/09/16 02:37:38;;;;;;;3.78;1.13;;;11.60;99.90;;;;;;5134885;27;20043;-77
2022/09/16 02:40:11;;;;;;;4.72;1.13;;;11.60;99.90;;;;;;5135347;27;20133;-77
2022/09/16 02:42:37;;;;;;;7.28;1.35;;;11.50;99.90;;;;;;5134753;27;20055;-76
2022/09/16 02:45:04;;;;;;;4.15;1.13;;;11.50;99.90;;;;;;5134873;27;20620;-77
2022/09/16 02:47:40;;;;;;;4.75;1.08;;;11.50;99.90;;;;;;5135094;27;20043;-77
2022/09/16 02:50:34;;;;;;;3.10;1.15;;;11.50;99.90;;;;;;5134768;27;20457;-77
2022/09/16 02:53:03;;;;;;;2.70;0.90;;;11.50;99.90;;;;;;5134462;27;20040;-76
2022/09/16 02:55:41;;;;;;;3.97;1.33;;;11.50;99.90;;;;;;5134582;27;20148;-77
2022/09/16 02:58:08;;;;;;;7.03;1.42;;;11.50;99.90;;;;;;5134695;28;20043;-77
2022/09/16 03:00:38;;;;;;;5.15;1.40;;;11.50;99.90;;;;;;5134554;28;20142;-77
2022/09/16 03:03:04;;;;;;;3.80;1.17;;;11.70;99.90;;;;;;5134651;28;20043;-77
2022/09/16 03:05:30;;;;;;;5.55;1.33;;;11.50;99.90;;;;;;5134694;28;20043;-77
2022/09/16 03:07:56;;;;;;;1.80;1.10;;;11.40;99.90;;;;;;5134603;28;20069;-77
2022/09/16 03:10:28;;;;;;;5.63;0.90;;;11.40;99.90;;;;;;5134560;28;20061;-77
2022/09/16 03:13:19;;;;;;;3.00;0.85;;;11.40;99.90;;;;;;5134499;28;20068;-77
2022/09/16 03:15:57;;;;;;;5.80;0.90;;;11.40;99.90;;;;;;5134945;28;20092;-77
2022/09/16 03:18:31;;;;;;;;;;;11.40;99.90;;;;;;5137504;27;20061;-77
2022/09/16 03:21:09;;;;;;;2.42;0.80;;;11.40;99.90;;;;;;5138819;27;20011;-77
2022/09/16 03:24:06;;;;;;;3.10;1.05;;;11.50;99.90;;;;;;5138694;27;20047;-77
2022/09/16 03:26:45;;;;;;;7.18;1.33;;;11.40;99.90;;;;;;5138543;27;20086;-77
2022/09/16 03:29:20;;;;;;;3.40;1.10;;;11.40;99.90;;;;;;5138558;27;20047;-77
2022/09/16 03:32:09;;;;;;;3.03;0.90;;;11.40;99.90;;;;;;5120354;27;20126;-77
2022/09/16 03:34:37;;;;;;;;;;;11.40;99.90;;;;;;5121056;27;20401;-77
2022/09/16 03:37:08;;;;;;;6.15;1.30;;;11.40;99.90;;;;;;5138330;27;19963;-77
2022/09/16 03:39:34;;;;;;;8.13;1.00;;;11.40;99.90;;;;;;5138597;27;20104;-77
2022/09/16 03:42:02;;;;;;;2.95;1.00;;;11.40;99.90;;;;;;5138122;27;20457;-77
2022/09/16 03:44:36;;;;;;;4.50;1.02;;;11.30;99.90;;;;;;5138316;27;20047;-77
2022/09/16 03:47:03;;;;;;;3.60;1.05;;;11.40;99.90;;;;;;5138216;27;20074;-77
2022/09/16 03:49:29;;;;;;;6.07;0.93;;;11.30;99.90;;;;;;5138183;27;20121;-77
2022/09/16 03:51:55;;;;;;;4.20;0.90;;;11.30;99.90;;;;;;5138061;27;20046;-76
2022/09/16 03:54:21;;;;;;;2.73;0.97;;;11.40;99.90;;;;;;5137988;27;20035;-76
2022/09/16 03:56:46;;;;;;;4.20;1.27;;;11.30;99.90;;;;;;5138075;27;20046;-77
2022/09/16 03:59:12;;;;;;;3.72;1.27;;;11.40;99.90;;;;;;5137595;27;20050;-77
2022/09/16 04:01:37;;;;;;;3.42;1.17;;;11.30;99.90;;;;;;5137946;27;20042;-77
2022/09/16 04:04:03;;;;;;;4.45;1.23;;;11.30;99.90;;;;;;5138189;27;20054;-78
2022/09/16 04:06:28;;;;;;;5.40;1.20;;;11.30;99.90;;;;;;5137526;27;20490;-77
2022/09/16 04:08:58;;;;;;;2.72;1.00;;;11.60;99.90;;;;;;5137993;27;20047;-77
2022/09/16 04:11:23;;;;;;;3.58;1.23;;;11.30;99.90;;;;;;5137672;27;20050;-77
2022/09/16 04:13:49;;;;;;;3.67;0.80;;;11.20;99.90;;;;;;5137544;27;20043;-77
2022/09/16 04:16:22;;;;;;;2.17;0.77;;;11.20;99.90;;;;;;5137646;27;20039;-77
2022/09/16 04:18:48;;;;;;;4.30;1.10;;;11.10;99.90;;;;;;5137588;27;20038;-77
2022/09/16 04:21:14;;;;;;;3.22;1.00;;;11.30;99.90;;;;;;5137601;27;20089;-77
2022/09/16 04:23:40;;;;;;;3.30;1.00;;;11.00;99.90;;;;;;5137671;27;20042;-77
2022/09/16 04:26:06;;;;;;;3.55;0.90;;;11.00;99.90;;;;;;5137423;27;20051;-77
2022/09/16 04:28:32;;;;;;;2.42;1.02;;;10.90;99.90;;;;;;5137046;27;20076;-77
2022/09/16 04:31:06;;;;;;;2.83;0.82;;;10.90;99.90;;;;;;5136754;27;20043;-77
2022/09/16 04:33:33;;;;;;;4.80;0.90;;;10.90;99.90;;;;;;5137206;27;20031;-77
2022/09/16 04:36:07;;;;;;;4.60;1.10;;;10.90;99.90;;;;;;5118914;27;20082;-77
2022/09/16 04:38:37;;;;;;;3.78;1.25;;;10.90;99.90;;;;;;5118922;27;20043;-77
2022/09/16 04:41:04;;;;;;;4.45;1.00;;;10.80;99.90;;;;;;5137079;27;20035;-77
2022/09/16 04:43:30;;;;;;;4.45;1.00;;;10.80;99.90;;;;;;5137501;27;20062;-77
2022/09/16 04:45:56;;;;;;;5.95;1.33;;;10.90;99.90;;;;;;5119136;27;20474;-76
2022/09/16 04:48:22;;;;;;;2.78;0.95;;;10.80;99.90;;;;;;5137031;27;20061;-77
2022/09/16 04:50:47;;;;;;;4.00;1.23;;;10.80;99.90;;;;;;5119091;27;20122;-77
2022/09/16 04:53:13;;;;;;;3.47;0.80;;;10.70;99.90;;;;;;5136855;27;20039;-77
2022/09/16 04:55:39;;;;;;;4.28;1.00;;;10.80;99.90;;;;;;5136743;27;20153;-77
2022/09/16 04:58:04;;;;;;;3.70;0.88;;;10.70;99.90;;;;;;5136536;27;20039;-77
2022/09/16 05:00:30;;;;;;;5.72;1.45;;;10.70;99.90;;;;;;5118661;27;20127;-77
2022/09/16 05:02:55;;;;;;;4.03;1.00;;;10.70;99.90;;;;;;5136663;27;20058;-77
2022/09/16 05:05:21;;;;;;;5.97;1.40;;;10.70;99.90;;;;;;5118614;27;20058;-77
2022/09/16 05:07:46;;;;;;;3.03;0.80;;;10.70;99.90;;;;;;5136748;27;20047;-77
2022/09/16 05:10:12;;;;;;;5.43;0.93;;;10.70;99.90;;;;;;5136421;27;20035;-77
2022/09/16 05:12:38;;;;;;;6.15;1.15;;;10.70;99.90;;;;;;5136958;27;20131;-77
2022/09/16 05:15:04;;;;;;;5.03;1.10;;;10.70;99.90;;;;;;5136453;27;20152;-77
2022/09/16 05:17:30;;;;;;;1.92;0.90;;;10.70;99.90;;;;;;5136688;27;20043;-77
2022/09/16 05:19:56;;;;;;;1.95;0.90;;;10.70;99.90;;;;;;5136299;27;20479;-77
2022/09/16 05:22:22;;;;;;;6.00;1.48;;;10.70;99.90;;;;;;5136500;27;20074;-78
2022/09/16 05:24:47;;;;;;;4.20;1.40;;;10.80;99.90;;;;;;5136204;27;20482;-77
2022/09/16 05:27:13;;;;;;;4.03;1.15;;;10.70;99.90;;;;;;5117875;27;20134;-77
2022/09/16 05:29:39;;;;;;;3.67;1.27;;;10.70;99.90;;;;;;5136592;27;20053;-77
2022/09/16 05:32:05;;;;;;;4.93;1.63;;;10.70;99.90;;;;;;5135752;27;20035;-77
2022/09/16 05:34:30;;;;;;;5.32;1.33;;;10.80;99.90;;;;;;5136055;27;20042;-77
2022/09/16 05:36:56;;;;;;;4.93;1.30;;;10.80;99.90;;;;;;5136270;27;20394;-77
2022/09/16 05:39:23;;;;;;;3.22;1.15;;;10.80;99.90;;;;;;5136072;27;20044;-77
2022/09/16 05:41:51;;;;;;;4.32;1.27;;;10.80;99.90;;;;;;5135498;27;20466;-77
2022/09/16 05:44:16;;;;;;;6.85;1.55;;;10.80;99.90;;;;;;5117781;27;20055;-77
2022/09/16 05:46:42;;;;;;;5.25;1.52;;;10.80;99.90;;;;;;5135852;27;20379;-77
2022/09/16 05:49:09;;;;;;;5.20;1.67;;;10.80;99.90;;;;;;5135881;27;20085;-77
2022/09/16 05:51:36;;;;;;;3.72;1.27;;;10.80;99.90;;;;;;5135743;27;20042;-77
2022/09/16 05:54:02;;;;;;;3.15;1.35;;;10.80;99.90;;;;;;5135555;27;20043;-77
2022/09/16 05:56:30;;;;;;;3.03;1.02;;;10.70;99.90;;;;;;5136064;27;20379;-77
2022/09/16 05:58:58;;;;;;;6.15;1.30;;;10.70;99.90;;;;;;5135588;27;20051;-77
2022/09/16 06:01:28;;;;;;;6.35;1.17;;;10.70;99.90;;;;;;5135350;27;20505;-77
2022/09/16 06:03:54;;;;;;;6.28;1.30;;;10.70;99.90;;;;;;5135464;27;20043;-77
2022/09/16 06:06:22;;;;;;;2.72;1.15;;;11.00;99.90;;;;;;5135688;27;20118;-78
2022/09/16 06:08:48;;;;;;;3.17;1.15;;;10.70;99.90;;;;;;5135310;27;20043;-77
2022/09/16 06:11:14;;;;;;;4.93;1.03;;;10.70;99.90;;;;;;5135396;27;20039;-77
2022/09/16 06:13:40;;;;;;;5.30;1.20;;;10.70;99.90;;;;;;5135239;27;20384;-76
2022/09/16 06:16:08;;;;;;;6.80;1.45;;;10.80;99.90;;;;;;5135272;27;20126;-77
2022/09/16 06:18:34;;;;;;;5.53;1.20;;;10.80;99.90;;;;;;5135389;27;20126;-76
2022/09/16 06:21:05;;;;;;;6.55;1.55;;;10.80;99.90;;;;;;5135230;27;20090;-76
2022/09/16 06:23:31;;;;;;;6.90;1.10;;;10.90;99.90;;;;;;5116743;27;20050;-77
2022/09/16 06:26:02;;;;;;;5.35;1.55;;;11.10;99.90;;;;;;5135135;27;20047;-77
2022/09/16 06:28:28;;;;;;;4.30;0.98;;;11.10;99.90;;;;;;5135270;27;20051;-76
2022/09/16 06:31:01;;;;;;;4.63;1.45;;;11.20;99.90;;;;;;5116979;27;20043;-76
2022/09/16 06:33:27;;;;;;;4.72;1.27;;;11.40;99.90;;;;;;5135006;27;20126;-77
2022/09/16 06:35:53;;;;;;;5.97;1.15;;;11.40;99.90;;;;;;5134961;27;20575;-76
2022/09/16 06:38:18;;;;;;;4.47;1.13;;;11.40;99.90;;;;;;5135081;27;20042;-76
2022/09/16 06:40:44;;;;;;;4.90;1.48;;;11.50;99.90;;;;;;5134698;27;20051;-76
2022/09/16 06:43:09;;;;;;;4.30;1.25;;;11.50;99.90;;;;;;5134846;27;20047;-77
2022/09/16 06:45:35;;;;;;;4.60;1.40;;;11.50;99.90;;;;;;5135163;27;20083;-76
2022/09/16 06:48:01;;;;;;;3.58;1.15;;;11.60;99.90;;;;;;5134827;27;20070;-75
2022/09/16 06:50:27;;;;;;;4.90;1.33;;;11.60;99.90;;;;;;5134692;27;20099;-76
2022/09/16 06:52:52;;;;;;;10.52;1.33;;;11.70;99.90;;;;;;5134164;27;20292;-76
2022/09/16 06:55:18;;;;;;;5.93;1.23;;;11.60;99.90;;;;;;5116704;27;20538;-76
2022/09/16 06:57:44;;;;;;;5.05;1.13;;;11.80;99.90;;;;;;5134611;28;20047;-76
2022/09/16 07:00:10;;;;;;;4.25;1.08;;;11.60;99.90;;;;;;5116492;28;20039;-76
2022/09/16 07:02:37;;;;;;;11.07;1.27;;;11.60;99.90;;;;;;5134572;28;20043;-76
2022/09/16 07:05:02;;;;;;;7.78;1.58;;;11.70;99.90;;;;;;5134628;28;20141;-76
2022/09/16 07:07:31;;;;;;;5.13;1.17;;;11.80;99.90;;;;;;5134519;28;20047;-76
2022/09/16 07:09:57;;;;;;;2.97;1.33;;;11.90;99.90;;;;;;5134961;28;20039;-77
2022/09/16 07:12:23;;;;;;;8.88;1.38;;;12.00;99.90;;;;;;5134522;28;20109;-76
2022/09/16 07:14:48;;;;;;;3.35;0.93;;;12.10;99.90;;;;;;5134231;28;20498;-77
2022/09/16 07:17:14;;;;;;;4.85;1.17;;;12.20;99.90;;;;;;5134543;28;20129;-77
2022/09/16 07:19:41;;;;;;;6.88;1.50;;;12.40;99.90;;;;;;5134578;28;20047;-77
2022/09/16 07:22:07;;;;;;;5.07;1.30;;;12.50;99.90;;;;;;5134378;28;20116;-77
2022/09/16 07:24:32;;;;;;;5.60;1.13;;;12.60;99.90;;;;;;5116262;28;20249;-77
2022/09/16 07:26:58;;;;;;;7.40;1.42;;;12.70;99.90;;;;;;5134530;28;20047;-77
2022/09/16 07:29:24;;;;;;;7.68;1.80;;;13.10;99.90;;;;;;5133706;28;20063;-77
2022/09/16 07:31:49;;;;;;;3.92;1.30;;;13.00;99.90;;;;;;5134086;28;20458;-76
2022/09/16 07:34:15;;;;;;;5.53;1.23;;;13.10;99.90;;;;;;5133960;28;20043;-77
2022/09/16 07:36:43;;;;;;;12.98;2.45;;;13.20;99.90;;;;;;5116024;28;20416;-79
2022/09/16 07:39:11;;;;;;;6.50;1.50;;;13.30;99.90;;;;;;5134188;28;20054;-77
2022/09/16 07:41:42;;;;;;;5.95;0.98;;;13.40;99.90;;;;;;5115860;28;20080;-77
2022/09/16 07:44:12;;;;;;;10.18;2.00;;;13.50;99.90;;;;;;5134414;28;20035;-77
2022/09/16 07:46:38;;;;;;;6.35;1.45;;;13.70;99.90;;;;;;5133882;28;20051;-76
2022/09/16 07:49:06;;;;;;;8.30;1.60;;;13.90;99.90;;;;;;5134006;28;20039;-76
2022/09/16 07:51:32;;;;;;;5.82;1.73;;;13.90;99.90;;;;;;5134128;28;20054;-76
2022/09/16 07:54:02;;;;;;;9.02;2.15;;;13.90;99.90;;;;;;5133951;28;20122;-78
2022/09/16 07:56:30;;;;;;;7.63;1.48;;;14.00;99.90;;;;;;5134085;28;20529;-77
2022/09/16 07:58:56;;;;;;;6.13;1.67;;;14.00;99.90;;;;;;5134121;28;20122;-78
2022/09/16 08:01:23;;;;;;;8.53;1.80;;;14.10;99.90;;;;;;5134256;28;20084;-77
2022/09/16 08:03:49;;;;;;;5.60;1.23;;;14.20;99.90;;;;;;5134135;27;20032;-77
2022/09/16 08:06:20;;;;;;;9.52;1.77;;;14.20;99.90;;;;;;5138146;27;20425;-78
2022/09/16 08:08:46;;;;;;;7.28;1.48;;;14.30;99.90;;;;;;5137780;27;20079;-78
2022/09/16 08:11:13;;;;;;;8.93;2.10;;;14.30;99.90;;;;;;5137684;27;20035;-78
2022/09/16 08:13:40;;;;;;;9.20;1.83;;;14.40;99.90;;;;;;5137598;27;20039;-77
2022/09/16 08:16:09;;;;;;;8.55;1.75;;;14.40;99.90;;;;;;5137688;27;20495;-78
2022/09/16 08:18:35;;;;;;;7.85;1.88;;;14.50;99.90;;;;;;5137167;27;20046;-78
2022/09/16 08:21:08;;;;;;;9.00;2.00;;;14.50;99.90;;;;;;5137902;27;20474;-77
2022/09/16 08:23:35;;;;;;;8.27;1.55;;;14.60;99.90;;;;;;5119139;27;20100;-78
2022/09/16 08:26:02;;;;;;;10.95;1.75;;;14.70;99.90;;;;;;5137361;27;20047;-78
2022/09/16 08:28:28;;;;;;;8.00;2.05;;;14.80;99.90;;;;;;5119313;27;20432;-77
2022/09/16 08:30:54;;;;;;;5.18;1.40;;;14.80;99.90;;;;;;5137337;27;20050;-78
2022/09/16 08:33:22;;;;;;;6.38;1.75;;;14.90;99.90;;;;;;5119145;27;20043;-77
2022/09/16 08:36:01;;;;;;;6.60;1.75;;;15.00;99.90;;;;;;5137283;27;20043;-78
2022/09/16 08:38:27;;;;;;;7.57;1.88;;;15.10;99.90;;;;;;5137283;27;20047;-78
2022/09/16 08:41:28;;;;;;;8.75;1.92;;;15.20;99.90;;;;;;5136920;27;20070;-77
2022/09/16 08:44:20;;;;;;;4.05;1.42;;;15.30;99.90;;;;;;5132138;27;20095;-78
2022/09/16 08:46:53;;;;;;;7.88;2.17;;;15.30;99.90;;;;;;5119010;27;20050;-78
2022/09/16 08:49:38;;;;;;;7.72;1.70;;;15.40;99.90;;;;;;5137443;27;20039;-77
2022/09/16 08:52:13;;;;;;;11.38;2.10;;;15.40;99.90;;;;;;5136616;27;20046;-77
2022/09/16 08:54:45;;;;;;;8.90;1.83;;;15.50;99.90;;;;;;5137014;27;20583;-78
2022/09/16 08:57:33;;;;;;;7.50;1.83;;;15.50;99.90;;;;;;5136876;27;20082;-77
2022/09/16 09:00:12;;;;;;;6.38;1.65;;;15.70;99.90;;;;;;5136907;27;20039;-76
2022/09/16 09:03:04;;;;;;;10.13;2.00;;;15.80;99.90;;;;;;5136670;27;20039;-75
2022/09/16 09:05:42;;;;;;;6.10;1.58;;;15.90;99.90;;;;;;5136718;27;20058;-76
2022/09/16 09:08:42;;;;;;;8.40;1.80;;;16.00;99.90;;;;;;5136612;27;20074;-78
2022/09/16 09:11:33;;;;;;;8.80;1.83;;;16.00;99.90;;;;;;5136509;27;20047;-78
2022/09/16 09:13:58;;;;;;;7.80;1.70;;;16.00;99.90;;;;;;5136630;27;20044;-76
2022/09/16 09:16:44;;;;;;;9.37;2.13;;;15.90;99.90;;;;;;5136036;27;20088;-78
2022/09/16 09:19:22;;;;;;;11.10;2.35;;;15.70;99.90;;;;;;5136346;27;20083;-77
2022/09/16 09:22:06;;;;;;;;;;;15.60;99.90;;;;;;5136811;27;20089;-77
2022/09/16 09:24:37;;;;;;;8.10;1.95;;;15.50;99.90;;;;;;5136319;27;20015;-77
2022/09/16 09:27:20;;;;;;;7.03;2.00;;;15.50;99.90;;;;;;5136233;27;20051;-77
2022/09/16 09:29:54;;;;;;;10.77;2.08;;;15.60;99.90;;;;;;5136594;27;20120;-76
2022/09/16 09:32:55;;;;;;;6.95;1.92;;;15.80;99.90;;;;;;5136123;27;20175;-77
2022/09/16 09:35:53;;;;;;;8.20;1.80;;;15.90;99.90;;;;;;5136037;27;20130;-77
2022/09/16 09:38:34;;;;;;;6.18;1.77;;;16.00;99.90;;;;;;5136622;27;20391;-77
2022/09/16 09:41:23;;;;;;;6.15;1.60;;;15.90;99.90;;;;;;5135958;27;20051;-76
2022/09/16 09:43:55;;;;;;;6.75;1.70;;;15.90;99.90;;;;;;5117427;27;20436;-77
2022/09/16 09:46:36;;;;;;;6.78;2.00;;;16.00;99.90;;;;;;5135830;27;20489;-78
2022/09/16 09:49:42;;;;;;;7.22;1.80;;;16.10;99.90;;;;;;5136243;27;20039;-77
2022/09/16 09:52:23;;;;;;;4.63;2.08;;;16.20;99.90;;;;;;5113549;27;20051;-77
2022/09/16 09:54:50;;;;;;;7.88;1.88;;;16.30;99.90;;;;;;5135737;27;20111;-77
2022/09/16 09:57:38;;;;;;;6.18;1.65;;;16.40;99.90;;;;;;5136015;27;20506;-77
2022/09/16 10:00:13;;;;;;;6.75;1.92;;;16.50;99.90;;;;;;5135700;27;20039;-77
2022/09/16 10:02:41;;;;;;;6.93;2.00;;;16.50;99.90;;;;;;5135596;27;20126;-77
2022/09/16 10:05:23;;;;;;;6.70;1.77;;;16.60;99.90;;;;;;5135425;27;20049;-77
2022/09/16 10:07:51;;;;;;;19.13;2.00;;;16.60;99.90;;;;;;5135422;27;20043;-77
2022/09/16 10:10:21;;;;;;;8.32;1.45;;;16.80;99.90;;;;;;5135416;27;20082;-77
2022/09/16 10:12:46;;;;;;;6.70;1.40;;;16.80;99.90;;;;;;5135229;27;20101;-77
2022/09/16 10:15:29;;;;;;;4.80;1.30;;;16.90;99.90;;;;;;5135645;27;20035;-78
2022/09/16 10:17:58;;;;;;;7.05;1.67;;;16.90;99.90;;;;;;5135832;27;20054;-77
2022/09/16 10:20:31;;;;;;;11.35;1.85;;;17.00;99.90;;;;;;5135141;27;20053;-77
2022/09/16 10:23:21;;;;;;;7.18;1.85;;;17.00;99.90;;;;;;5135399;27;20035;-77
2022/09/16 10:25:47;;;;;;;4.90;1.48;;;17.30;99.40;;;;;;5135287;27;20039;-77
2022/09/16 10:28:23;;;;;;;5.50;1.60;;;17.30;99.90;;;;;;5134362;27;20539;-77
2022/09/16 10:30:59;;;;;;;6.88;1.70;;;17.40;99.90;;;;;;5116509;27;20498;-77
2022/09/16 10:33:28;;;;;;;4.72;1.35;;;17.50;99.30;;;;;;5135027;27;20122;-77
2022/09/16 10:36:04;;;;;;;5.97;1.48;;;17.50;99.80;;;;;;5135024;27;20047;-77
2022/09/16 10:38:39;;;;;;;7.72;1.90;;;17.70;99.90;;;;;;5117557;27;20482;-78
2022/09/16 10:41:12;;;;;;;5.07;1.52;;;18.00;99.00;;;;;;5134945;27;20043;-76
2022/09/16 10:44:08;;;;;;;4.32;1.58;;;18.00;99.30;;;;;;5134734;27;20083;-77
2022/09/16 10:46:33;;;;;;;6.07;1.38;;;18.00;97.70;;;;;;5120865;27;20051;-77
2022/09/16 10:49:11;;;;;;;6.13;1.50;;;18.00;98.60;;;;;;5136207;27;20069;-77
2022/09/16 10:51:37;;;;;;;7.07;1.65;;;17.80;98.10;;;;;;5138262;27;20133;-77
2022/09/16 10:54:05;;;;;;;5.27;1.50;;;17.70;99.90;;;;;;5134053;27;20130;-77
2022/09/16 10:56:45;;;;;;;5.93;1.10;;;17.20;99.90;;;;;;5133211;27;20055;-77
2022/09/16 10:59:13;;;;;;;4.25;1.10;;;16.90;99.90;;;;;;5135491;27;20043;-77
2022/09/16 11:01:58;;;;;;;5.63;1.40;;;16.60;99.90;;;;;;5140073;28;20035;-77
2022/09/16 11:04:40;;;;;;;4.47;1.15;;;16.60;99.90;;;;;;5136073;28;20387;-78
2022/09/16 11:07:38;;;;;;;5.78;1.30;;;16.60;99.90;;;;;;5135703;28;20054;-77
2022/09/16 11:10:29;;;;;;;4.65;1.30;;;16.60;99.90;;;;;;5134879;28;20133;-78
2022/09/16 11:13:06;;;;;;;4.75;1.50;;;16.80;99.90;;;;;;5135229;28;20493;-77
2022/09/16 11:16:05;;;;;;;5.95;1.45;;;17.00;99.90;;;;;;5135051;28;20042;-77
2022/09/16 11:19:05;;;;;;;;;;;17.10;99.90;;;;;;5135413;28;20491;-77
2022/09/16 11:21:34;;;;;;;7.25;1.50;;;17.10;99.90;;;;;;5051293;28;19968;-78
2022/09/16 11:24:32;;;;;;;9.40;2.08;;;17.30;99.90;;;;;;5118775;28;20062;-79
2022/09/16 11:27:16;;;;;;;4.10;1.23;;;17.30;99.20;;;;;;5134917;28;20092;-75
2022/09/16 11:30:14;;;;;;;8.55;1.80;;;17.50;99.90;;;;;;5134913;28;20047;-75
2022/09/16 11:32:57;;;;;;;8.93;1.73;;;17.70;99.00;;;;;;5089819;28;20047;-75
2022/09/16 11:35:46;;;;;;;9.90;1.73;;;17.90;99.90;;;;;;5136860;28;20624;-74
2022/09/16 11:38:23;;;;;;;5.60;1.83;;;18.10;99.70;;;;;;5136604;27;20046;-78
2022/09/16 11:41:23;;;;;;;4.68;1.35;;;18.30;99.00;;;;;;5121268;27;20043;-75
2022/09/16 11:44:06;;;;;;;6.18;1.70;;;18.30;98.80;;;;;;5138251;27;20043;-76
2022/09/16 11:46:59;;;;;;;7.03;1.85;;;18.50;97.90;;;;;;5138966;27;20064;-76
2022/09/16 11:49:51;;;;;;;5.22;1.45;;;18.60;97.70;;;;;;5127636;27;20051;-76
2022/09/16 11:52:40;;;;;;;5.57;1.40;;;18.50;97.10;;;;;;5138143;27;20072;-76
2022/09/16 11:55:18;;;;;;;3.45;1.38;;;18.30;96.60;;;;;;5138124;27;20035;-76
2022/09/16 11:57:47;;;;;;;;;;;18.30;97.20;;;;;;5138531;27;20101;-77
2022/09/16 12:00:18;;;;;;;4.57;1.33;;;18.20;95.10;;;;;;5137944;27;20251;-77
2022/09/16 12:02:59;;;;;;;7.30;1.27;;;18.20;96.50;;;;;;5138368;27;20433;-76
2022/09/16 12:05:41;;;;;;;5.45;1.30;;;18.30;96.60;;;;;;5138171;27;20039;-76
2022/09/16 12:08:21;;;;;;;3.22;1.00;;;18.40;95.80;;;;;;5119542;27;20118;-76
2022/09/16 12:10:57;;;;;;;6.20;1.35;;;18.70;96.70;;;;;;5119944;27;20050;-76
2022/09/16 12:13:30;;;;;;;7.93;1.88;;;18.60;96.50;;;;;;5137381;27;20537;-76
2022/09/16 12:16:01;;;;;;;8.32;1.65;;;18.60;98.10;;;;;;5137663;27;20043;-76
2022/09/16 12:18:41;;;;;;;6.88;1.35;;;17.90;99.90;;;;;;5137562;27;20043;-76
2022/09/16 12:21:34;;;;;;;4.63;1.10;;;17.30;99.90;;;;;;5119292;27;20034;-76
2022/09/16 12:24:08;;;;;;;4.95;1.40;;;16.80;99.90;;;;;;5137909;27;20047;-76
2022/09/16 12:26:42;;;;;;;6.10;1.40;;;16.30;99.90;;;;;;5137471;27;20479;-76
2022/09/16 12:29:30;;;;;;;4.30;1.35;;;16.20;99.90;;;;;;5120131;27;20039;-76
2022/09/16 12:32:28;;;;;;;4.65;1.20;;;16.20;99.90;;;;;;5137142;27;20513;-77
2022/09/16 12:35:05;;;;;;;6.55;1.60;;;16.40;99.90;;;;;;5103615;27;20051;-76
2022/09/16 12:37:40;;;;;;;7.53;1.60;;;16.50;99.90;;;;;;5137304;27;20116;-77
2022/09/16 12:40:24;;;;;;;7.38;1.60;;;16.60;99.90;;;;;;5137161;27;20043;-77
2022/09/16 12:43:20;;;;;;;5.88;1.60;;;16.60;99.90;;;;;;5118631;27;20039;-77
2022/09/16 12:46:00;;;;;;;5.63;1.48;;;16.50;99.90;;;;;;5137242;27;20053;-76
2022/09/16 12:48:44;;;;;;;4.03;1.30;;;16.20;99.90;;;;;;5137366;27;20478;-76
2022/09/16 12:51:43;;;;;;;6.95;1.70;;;15.90;99.90;;;;;;5117858;27;20491;-76
2022/09/16 12:54:39;;;;;;;7.50;1.77;;;15.60;99.90;;;;;;5137046;27;20506;-76
2022/09/16 12:57:21;;;;;;;9.15;1.63;;;15.40;99.90;;;;;;5136845;27;20058;-78
2022/09/16 13:00:30;;;;;;;4.22;1.02;;;15.30;99.90;;;;;;5136785;27;20047;-76
2022/09/16 13:03:04;;;;;;;4.30;1.40;;;15.30;99.90;;;;;;5118215;27;20047;-76
2022/09/16 13:05:33;;;;;;;5.80;1.63;;;15.50;99.90;;;;;;5137269;27;20078;-76
2022/09/16 13:08:03;;;;;;;5.00;1.13;;;15.70;99.90;;;;;;5136681;27;20121;-76
2022/09/16 13:10:32;;;;;;;5.30;1.30;;;16.00;99.90;;;;;;5136824;27;20057;-76
2022/09/16 13:13:00;;;;;;;6.65;1.38;;;16.20;99.90;;;;;;5136433;27;20047;-76
2022/09/16 13:15:29;;;;;;;4.00;1.00;;;16.40;99.90;;;;;;5136339;27;20391;-76
2022/09/16 13:18:05;;;;;;;7.20;1.55;;;16.80;99.90;;;;;;5136682;27;20043;-76
2022/09/16 13:20:38;;;;;;;5.50;1.53;;;16.80;99.90;;;;;;5136555;27;20119;-76
2022/09/16 13:23:11;;;;;;;4.85;1.40;;;16.80;99.90;;;;;;5136570;27;20038;-76